Time;durP1;ratioP1;P1;durP2;ratioP2;P2;SDS_P1;SDS_P2;PMS_P1;PMS_P2;Temp;Humidity;BMP_temperature;BMP_pressure;BME280_temperature;BME280_humidity;BME280_pressure;Samples;Min_cycle;Max_cycle;Signal;HPM_P1;HPM_P2
2021/11/10 00:00:27;;;;;;;39.60;14.10;;;1.80;99.90;;;;;;5115024;28;20157;-69
2021/11/10 00:02:54;;;;;;;28.57;14.03;;;1.70;99.90;;;;;;5117992;27;20115;-69
2021/11/10 00:05:22;;;;;;;33.93;15.43;;;1.60;99.90;;;;;;5115548;28;20047;-69
2021/11/10 00:07:49;;;;;;;24.50;13.13;;;1.50;99.90;;;;;;5115672;28;20290;-69
2021/11/10 00:10:17;;;;;;;28.73;13.47;;;1.50;99.90;;;;;;5115643;28;20550;-69
2021/11/10 00:12:44;;;;;;;27.70;15.10;;;1.50;99.90;;;;;;5115751;27;20457;-69
2021/11/10 00:15:12;;;;;;;27.03;13.50;;;1.80;99.90;;;;;;5114906;28;20055;-69
2021/11/10 00:17:41;;;;;;;28.07;13.10;;;1.70;99.90;;;;;;5115428;28;20068;-70
2021/11/10 00:20:11;;;;;;;32.37;13.07;;;1.60;99.90;;;;;;5115520;28;20061;-69
2021/11/10 00:22:38;;;;;;;26.07;13.10;;;1.60;99.90;;;;;;5114924;28;20351;-69
2021/11/10 00:25:07;;;;;;;23.90;12.57;;;1.60;99.90;;;;;;5114995;28;20051;-69
2021/11/10 00:27:34;;;;;;;28.13;13.77;;;1.60;99.90;;;;;;5115288;28;20104;-71
2021/11/10 00:30:01;;;;;;;27.27;14.13;;;1.50;99.90;;;;;;5117354;27;20051;-70
2021/11/10 00:32:28;;;;;;;24.83;13.23;;;1.50;99.90;;;;;;5118833;27;20108;-70
2021/11/10 00:34:56;;;;;;;28.33;14.20;;;1.50;99.90;;;;;;5119793;27;20078;-70
2021/11/10 00:37:23;;;;;;;25.07;13.30;;;1.60;99.90;;;;;;5118860;27;20055;-68
2021/11/10 00:39:50;;;;;;;26.57;13.37;;;1.70;99.90;;;;;;5119832;27;20086;-69
2021/11/10 00:42:17;;;;;;;27.27;12.97;;;1.60;99.90;;;;;;5118249;27;20043;-69
2021/11/10 00:44:44;;;;;;;24.13;13.10;;;1.60;99.90;;;;;;5115252;27;20047;-69
2021/11/10 00:47:11;;;;;;;32.33;14.87;;;1.60;99.90;;;;;;5113370;27;20047;-69
2021/11/10 00:49:38;;;;;;;27.57;13.50;;;1.50;99.90;;;;;;5113617;27;20047;-69
2021/11/10 00:52:07;;;;;;;26.40;13.17;;;1.60;99.90;;;;;;5113565;27;20499;-69
2021/11/10 00:54:34;;;;;;;21.60;11.90;;;1.60;99.90;;;;;;5112699;27;20123;-70
2021/11/10 00:57:01;;;;;;;29.80;13.87;;;1.60;99.90;;;;;;5113493;27;20043;-69
2021/11/10 00:59:28;;;;;;;25.93;12.43;;;1.60;99.90;;;;;;5113471;27;20050;-69
2021/11/10 01:01:55;;;;;;;28.27;13.90;;;1.50;99.90;;;;;;5113926;27;20040;-69
2021/11/10 01:04:22;;;;;;;27.43;13.03;;;1.50;99.90;;;;;;5114126;27;20051;-69
2021/11/10 01:06:50;;;;;;;28.10;12.93;;;1.40;99.90;;;;;;5113339;27;20047;-69
2021/11/10 01:09:19;;;;;;;28.77;12.83;;;1.40;99.90;;;;;;5114017;27;20051;-69
2021/11/10 01:12:07;;;;;;;24.80;12.97;;;1.40;99.90;;;;;;5113998;27;20055;-69
2021/11/10 01:14:34;;;;;;;26.60;13.70;;;1.30;99.90;;;;;;5113780;27;20054;-69
2021/11/10 01:17:01;;;;;;;28.70;12.93;;;1.50;99.90;;;;;;5114185;27;20059;-69
2021/11/10 01:19:28;;;;;;;26.13;12.27;;;1.50;99.90;;;;;;5113597;27;20816;-69
2021/11/10 01:21:57;;;;;;;25.23;12.83;;;1.50;99.90;;;;;;5112825;27;20039;-70
2021/11/10 01:24:25;;;;;;;24.73;12.23;;;1.40;99.90;;;;;;5112822;27;20046;-70
2021/11/10 01:26:52;;;;;;;23.57;12.47;;;1.50;99.90;;;;;;5112938;27;20043;-70
2021/11/10 01:29:19;;;;;;;26.83;13.83;;;1.40;99.90;;;;;;5111760;27;20116;-70
2021/11/10 01:31:46;;;;;;;28.73;14.17;;;1.40;99.90;;;;;;5114218;27;20512;-71
2021/11/10 01:34:13;;;;;;;23.63;12.60;;;1.40;99.90;;;;;;5113034;27;20047;-70
2021/11/10 01:36:40;;;;;;;24.33;11.93;;;1.40;99.90;;;;;;5112558;27;20047;-70
2021/11/10 01:39:09;;;;;;;27.43;13.13;;;1.40;99.90;;;;;;5112681;27;21189;-70
2021/11/10 01:41:42;;;;;;;23.30;12.17;;;1.40;99.90;;;;;;5111767;27;20093;-70
2021/11/10 01:44:15;;;;;;;28.77;12.13;;;1.30;99.90;;;;;;5114959;27;20051;-70
2021/11/10 01:46:42;;;;;;;26.77;13.57;;;1.30;99.90;;;;;;5111712;27;20053;-70
2021/11/10 01:49:09;;;;;;;29.73;13.10;;;1.30;99.90;;;;;;5112753;27;20146;-70
2021/11/10 01:51:42;;;;;;;28.90;13.93;;;1.20;99.90;;;;;;5111441;27;20641;-70
2021/11/10 01:54:12;;;;;;;24.13;12.77;;;1.20;99.90;;;;;;5112568;27;20127;-70
2021/11/10 01:56:41;;;;;;;25.17;13.27;;;1.20;99.90;;;;;;5111533;27;20086;-70
2021/11/10 01:59:09;;;;;;;25.33;12.43;;;1.00;99.90;;;;;;5113824;27;20153;-71
2021/11/10 02:01:44;;;;;;;23.23;12.40;;;1.00;99.90;;;;;;5112982;27;20075;-71
2021/11/10 02:04:11;;;;;;;27.50;12.67;;;1.10;99.90;;;;;;5112523;27;20472;-70
2021/11/10 02:06:39;;;;;;;24.20;12.63;;;1.30;99.90;;;;;;5111352;27;20139;-70
2021/11/10 02:09:06;;;;;;;27.27;13.93;;;1.30;99.90;;;;;;5112716;27;20533;-71
2021/11/10 02:11:34;;;;;;;27.73;14.00;;;1.20;99.90;;;;;;5112554;27;20051;-71
2021/11/10 02:14:03;;;;;;;33.63;15.53;;;1.10;99.90;;;;;;5112665;27;20656;-72
2021/11/10 02:16:30;;;;;;;25.80;12.73;;;1.10;99.90;;;;;;5111298;27;20457;-70
2021/11/10 02:18:57;;;;;;;27.70;13.10;;;1.10;99.90;;;;;;5112692;27;20096;-70
2021/11/10 02:21:30;;;;;;;27.77;12.53;;;1.00;99.90;;;;;;5111704;27;20078;-70
2021/11/10 02:23:58;;;;;;;29.33;13.83;;;1.00;99.90;;;;;;5114086;27;20495;-70
2021/11/10 02:26:26;;;;;;;24.93;12.80;;;1.00;99.90;;;;;;5111181;27;20484;-72
2021/11/10 02:28:53;;;;;;;25.17;13.07;;;1.00;99.90;;;;;;5112935;27;20047;-70
2021/11/10 02:31:20;;;;;;;24.97;12.53;;;0.90;99.90;;;;;;5111384;27;20670;-70
2021/11/10 02:33:48;;;;;;;26.03;13.73;;;0.90;99.90;;;;;;5111134;27;20043;-71
2021/11/10 02:36:15;;;;;;;26.53;14.10;;;0.90;99.90;;;;;;5111548;27;20062;-70
2021/11/10 02:38:43;;;;;;;27.87;13.37;;;0.90;99.90;;;;;;5112495;27;20047;-70
2021/11/10 02:41:11;;;;;;;26.33;12.60;;;0.90;99.90;;;;;;5111770;27;20432;-70
2021/11/10 02:43:38;;;;;;;28.40;13.60;;;0.80;99.90;;;;;;5112486;27;20082;-70
2021/11/10 02:46:05;;;;;;;24.03;12.63;;;0.80;99.90;;;;;;5112743;27;20051;-70
2021/11/10 02:48:32;;;;;;;21.40;12.63;;;0.80;99.90;;;;;;5110693;27;20051;-68
2021/11/10 02:50:59;;;;;;;28.10;14.43;;;0.80;99.90;;;;;;5111322;27;20096;-69
2021/11/10 02:53:26;;;;;;;22.47;11.80;;;0.90;99.90;;;;;;5112543;27;20127;-69
2021/11/10 02:55:54;;;;;;;29.17;14.20;;;0.80;99.90;;;;;;5111343;27;20082;-69
2021/11/10 02:58:21;;;;;;;28.07;14.40;;;0.80;99.90;;;;;;5112224;27;20047;-69
2021/11/10 03:00:48;;;;;;;27.93;12.83;;;0.80;99.90;;;;;;5111363;27;20043;-69
2021/11/10 03:03:15;;;;;;;24.97;12.80;;;0.80;99.90;;;;;;5111140;27;20043;-69
2021/11/10 03:05:47;;;;;;;57.20;15.33;;;0.80;99.90;;;;;;5110535;27;20043;-69
2021/11/10 03:08:18;;;;;;;32.33;13.20;;;0.80;99.90;;;;;;5111789;27;20129;-68
2021/11/10 03:10:45;;;;;;;37.00;14.27;;;0.70;99.90;;;;;;5111256;27;20138;-69
2021/11/10 03:13:14;;;;;;;27.93;13.37;;;0.70;99.90;;;;;;5112155;27;20070;-69
2021/11/10 03:15:42;;;;;;;34.40;14.23;;;0.60;99.90;;;;;;5111463;27;21260;-69
2021/11/10 03:18:10;;;;;;;39.80;16.00;;;0.60;99.90;;;;;;5112045;27;20040;-68
2021/11/10 03:20:37;;;;;;;64.07;16.07;;;0.60;99.90;;;;;;5111366;27;20047;-69
2021/11/10 03:23:05;;;;;;;77.70;17.03;;;0.50;99.90;;;;;;5111619;27;20888;-69
2021/11/10 03:25:32;;;;;;;112.87;20.73;;;0.40;99.90;;;;;;5110645;28;20098;-69
2021/11/10 03:28:00;;;;;;;137.90;18.43;;;0.40;99.90;;;;;;5110817;28;20089;-69
2021/11/10 03:30:29;;;;;;;213.33;25.10;;;0.40;99.90;;;;;;5111548;28;20057;-69
2021/11/10 03:32:56;;;;;;;102.20;18.87;;;0.40;99.90;;;;;;5111463;28;20039;-69
2021/11/10 03:35:24;;;;;;;39.40;15.10;;;0.40;99.90;;;;;;5109718;28;20775;-69
2021/11/10 03:37:51;;;;;;;52.37;17.33;;;0.50;99.90;;;;;;5112241;28;20078;-69
2021/11/10 03:40:19;;;;;;;25.87;13.43;;;0.50;99.90;;;;;;5109268;28;20481;-70
2021/11/10 03:42:46;;;;;;;29.07;13.63;;;0.50;99.90;;;;;;5110548;27;20043;-70
2021/11/10 03:45:13;;;;;;;24.00;13.77;;;0.50;99.90;;;;;;5110167;28;20051;-70
2021/11/10 03:47:41;;;;;;;29.07;14.63;;;0.50;99.90;;;;;;5110979;28;20054;-70
2021/11/10 03:50:09;;;;;;;27.83;13.27;;;0.50;99.90;;;;;;5111524;27;20079;-69
2021/11/10 03:52:37;;;;;;;25.93;12.93;;;0.60;99.90;;;;;;5111026;28;20116;-70
2021/11/10 03:55:05;;;;;;;25.47;12.90;;;0.60;99.90;;;;;;5110717;28;20768;-70
2021/11/10 03:57:32;;;;;;;27.30;13.53;;;0.60;99.90;;;;;;5109480;28;20488;-70
2021/11/10 03:59:59;;;;;;;27.23;13.27;;;0.70;99.90;;;;;;5113855;28;20429;-70
2021/11/10 04:02:26;;;;;;;27.67;13.00;;;0.80;99.90;;;;;;5111041;28;20047;-70
2021/11/10 04:04:54;;;;;;;28.80;13.10;;;0.90;99.90;;;;;;5113706;27;20064;-70
2021/11/10 04:07:22;;;;;;;24.90;12.80;;;0.80;99.90;;;;;;5114593;27;20051;-70
2021/11/10 04:09:50;;;;;;;33.63;13.27;;;0.90;99.90;;;;;;5115462;27;20137;-70
2021/11/10 04:12:18;;;;;;;28.10;13.23;;;0.90;99.90;;;;;;5114691;27;20420;-69
2021/11/10 04:14:44;;;;;;;72.30;16.10;;;0.90;99.90;;;;;;5115097;27;20058;-70
2021/11/10 04:17:11;;;;;;;56.90;16.20;;;0.90;99.90;;;;;;5114354;27;20120;-70
2021/11/10 04:19:38;;;;;;;34.60;14.20;;;0.90;99.90;;;;;;5114583;27;20627;-70
2021/11/10 04:22:08;;;;;;;42.77;16.00;;;0.90;99.90;;;;;;5114696;27;20463;-70
2021/11/10 04:24:35;;;;;;;61.70;14.53;;;0.90;99.90;;;;;;5114396;27;20147;-70
2021/11/10 04:27:02;;;;;;;68.30;14.47;;;1.00;99.90;;;;;;5114210;27;20096;-70
2021/11/10 04:29:29;;;;;;;32.20;13.30;;;1.00;99.90;;;;;;5115842;27;20055;-69
2021/11/10 04:31:59;;;;;;;71.17;17.40;;;1.10;99.90;;;;;;5115064;27;20260;-69
2021/11/10 04:34:26;;;;;;;40.10;13.23;;;0.90;99.90;;;;;;5113940;27;20078;-69
2021/11/10 04:36:53;;;;;;;37.73;13.03;;;1.00;99.90;;;;;;5114210;27;20100;-70
2021/11/10 04:39:22;;;;;;;58.90;15.13;;;1.00;99.90;;;;;;5114039;27;20142;-69
2021/11/10 04:41:49;;;;;;;87.57;16.00;;;1.00;99.90;;;;;;5114418;27;20508;-69
2021/11/10 04:44:16;;;;;;;55.63;16.93;;;0.90;99.90;;;;;;5116094;27;20058;-69
2021/11/10 04:46:43;;;;;;;59.57;14.90;;;0.90;99.90;;;;;;5114104;27;20043;-70
2021/11/10 04:49:10;;;;;;;133.50;17.80;;;0.90;99.90;;;;;;5113656;27;20519;-69
2021/11/10 04:51:38;;;;;;;48.43;14.27;;;0.90;99.90;;;;;;5114069;27;20051;-69
2021/11/10 04:54:08;;;;;;;103.60;16.23;;;0.90;99.90;;;;;;5114047;27;20058;-69
2021/11/10 04:56:39;;;;;;;88.33;16.83;;;0.80;99.90;;;;;;5115373;27;20055;-69
2021/11/10 04:59:07;;;;;;;141.63;19.57;;;0.70;99.90;;;;;;5113966;27;20393;-70
2021/11/10 05:01:38;;;;;;;71.20;15.03;;;0.50;99.90;;;;;;5113786;27;20139;-69
2021/11/10 05:04:05;;;;;;;137.43;17.30;;;0.60;99.90;;;;;;5112841;27;20047;-69
2021/11/10 05:06:33;;;;;;;108.10;16.07;;;0.70;99.90;;;;;;5113395;27;20057;-70
2021/11/10 05:09:00;;;;;;;51.17;14.57;;;0.60;99.90;;;;;;5114803;27;20568;-70
2021/11/10 05:11:27;;;;;;;159.40;18.53;;;0.60;99.90;;;;;;5114623;27;20096;-70
2021/11/10 05:13:55;;;;;;;104.23;16.63;;;0.60;99.90;;;;;;5113244;27;20086;-70
2021/11/10 05:16:22;;;;;;;53.30;15.17;;;0.60;99.90;;;;;;5110968;27;20515;-70
2021/11/10 05:18:49;;;;;;;69.20;15.37;;;0.70;99.90;;;;;;5115289;27;20047;-70
2021/11/10 05:21:17;;;;;;;54.20;15.10;;;0.70;99.90;;;;;;5116595;27;20159;-70
2021/11/10 05:23:44;;;;;;;38.77;15.13;;;0.80;99.90;;;;;;5114498;27;20078;-70
2021/11/10 05:26:11;;;;;;;52.60;14.47;;;0.80;99.90;;;;;;5112899;27;20055;-70
2021/11/10 05:28:38;;;;;;;59.87;16.50;;;0.80;99.90;;;;;;5113013;27;20047;-70
2021/11/10 05:31:06;;;;;;;78.40;15.73;;;0.80;99.90;;;;;;5113101;27;20067;-69
2021/11/10 05:33:33;;;;;;;55.27;16.07;;;0.70;99.90;;;;;;5113124;27;20194;-70
2021/11/10 05:36:00;;;;;;;92.83;17.70;;;0.80;99.90;;;;;;5111777;27;20178;-69
2021/11/10 05:38:27;;;;;;;73.30;16.57;;;0.70;99.90;;;;;;5113388;27;20444;-69
2021/11/10 05:40:54;;;;;;;49.33;15.60;;;0.60;99.90;;;;;;5113737;27;20399;-69
2021/11/10 05:43:21;;;;;;;101.60;19.87;;;0.60;99.90;;;;;;5111936;27;20519;-69
2021/11/10 05:45:48;;;;;;;97.87;16.40;;;0.60;99.90;;;;;;5112050;27;20046;-69
2021/11/10 05:48:17;;;;;;;60.23;17.77;;;0.60;99.90;;;;;;5113410;27;20047;-69
2021/11/10 05:50:44;;;;;;;77.00;15.83;;;0.70;99.90;;;;;;5113486;27;20430;-70
2021/11/10 05:53:12;;;;;;;88.73;16.47;;;0.70;99.90;;;;;;5112174;27;20132;-70
2021/11/10 05:55:41;;;;;;;78.70;16.37;;;0.70;99.90;;;;;;5111711;27;20051;-70
2021/11/10 05:58:09;;;;;;;193.10;21.40;;;0.50;99.90;;;;;;5113080;27;20066;-75
2021/11/10 06:00:36;;;;;;;68.93;16.20;;;0.60;99.90;;;;;;5112705;27;20085;-70
2021/11/10 06:03:03;;;;;;;115.67;17.70;;;0.60;99.90;;;;;;5112621;27;20461;-70
2021/11/10 06:05:32;;;;;;;64.23;15.33;;;0.50;99.90;;;;;;5112083;27;20040;-70
2021/11/10 06:07:59;;;;;;;79.07;16.40;;;0.60;99.90;;;;;;5112631;27;20140;-70
2021/11/10 06:10:26;;;;;;;219.87;22.77;;;0.60;99.90;;;;;;5112447;27;21413;-70
2021/11/10 06:12:53;;;;;;;113.23;18.93;;;0.50;99.90;;;;;;5112993;27;20054;-70
2021/11/10 06:15:20;;;;;;;108.30;18.17;;;0.50;99.90;;;;;;5111217;27;20047;-70
2021/11/10 06:17:47;;;;;;;77.60;17.50;;;0.60;99.90;;;;;;5112429;27;20043;-71
2021/11/10 06:20:15;;;;;;;163.07;20.90;;;0.60;99.90;;;;;;5112632;27;20084;-70
2021/11/10 06:22:44;;;;;;;89.10;16.80;;;0.60;99.90;;;;;;5113032;27;20050;-70
2021/11/10 06:25:12;;;;;;;110.80;17.30;;;0.40;99.90;;;;;;5111781;27;20047;-70
2021/11/10 06:27:39;;;;;;;48.63;14.37;;;0.50;99.90;;;;;;5112148;27;20048;-71
2021/11/10 06:30:08;;;;;;;60.23;15.80;;;0.60;99.90;;;;;;5112047;27;20096;-70
2021/11/10 06:32:35;;;;;;;104.60;17.70;;;0.60;99.90;;;;;;5112821;27;20595;-70
2021/11/10 06:35:03;;;;;;;102.43;18.10;;;0.60;99.90;;;;;;5117022;27;20499;-70
2021/11/10 06:37:30;;;;;;;64.43;17.47;;;0.60;99.90;;;;;;5113099;27;20104;-70
2021/11/10 06:39:58;;;;;;;76.13;15.90;;;0.60;99.90;;;;;;5112079;27;20054;-70
2021/11/10 06:42:25;;;;;;;71.43;16.67;;;0.60;99.90;;;;;;5115094;27;20214;-70
2021/11/10 06:44:55;;;;;;;66.97;15.30;;;0.70;99.90;;;;;;5112533;27;20088;-71
2021/11/10 06:47:22;;;;;;;72.03;16.77;;;0.80;99.90;;;;;;5110280;27;20512;-70
2021/11/10 06:49:49;;;;;;;104.37;19.33;;;0.70;99.90;;;;;;5112187;27;20104;-70
2021/11/10 06:52:16;;;;;;;61.83;15.10;;;0.40;99.90;;;;;;5111168;27;20075;-71
2021/11/10 06:54:43;;;;;;;53.10;16.13;;;0.60;99.90;;;;;;5110941;27;20051;-70
2021/11/10 06:57:12;;;;;;;86.47;17.07;;;0.70;99.90;;;;;;5110072;27;20103;-70
2021/11/10 06:59:39;;;;;;;67.17;15.87;;;0.80;99.90;;;;;;5111311;27;20057;-70
2021/11/10 07:02:07;;;;;;;43.87;15.93;;;0.80;99.90;;;;;;5111318;27;20043;-70
2021/11/10 07:04:34;;;;;;;44.43;16.43;;;0.80;99.90;;;;;;5110131;27;20055;-69
2021/11/10 07:07:01;;;;;;;51.83;18.03;;;0.90;99.90;;;;;;5111019;27;20047;-69
2021/11/10 07:09:28;;;;;;;41.93;14.97;;;1.00;99.90;;;;;;5111259;27;20623;-71
2021/11/10 07:11:55;;;;;;;65.97;16.73;;;1.00;99.90;;;;;;5112113;27;20108;-70
2021/11/10 07:14:24;;;;;;;43.80;15.93;;;1.10;99.90;;;;;;5110991;27;20837;-70
2021/11/10 07:16:51;;;;;;;89.43;18.17;;;1.10;99.90;;;;;;5108162;27;20051;-70
2021/11/10 07:19:18;;;;;;;64.27;16.87;;;1.10;99.90;;;;;;5114063;27;20100;-69
2021/11/10 07:21:45;;;;;;;49.40;15.50;;;1.10;99.90;;;;;;5115294;27;20123;-70
2021/11/10 07:24:12;;;;;;;36.27;13.97;;;1.20;99.90;;;;;;5116427;27;20086;-70
2021/11/10 07:26:39;;;;;;;101.17;18.77;;;1.30;99.90;;;;;;5114046;28;20464;-70
2021/11/10 07:29:06;;;;;;;55.73;17.07;;;1.20;99.90;;;;;;5116308;28;20511;-71
2021/11/10 07:31:34;;;;;;;69.37;16.17;;;1.20;99.90;;;;;;5115097;28;20086;-71
2021/11/10 07:34:02;;;;;;;55.57;14.83;;;1.20;99.90;;;;;;5111319;28;20051;-69
2021/11/10 07:36:30;;;;;;;34.07;13.80;;;1.30;99.90;;;;;;5110589;28;20086;-70
2021/11/10 07:38:58;;;;;;;101.17;16.83;;;1.50;99.90;;;;;;5113936;27;20587;-70
2021/11/10 07:41:28;;;;;;;38.07;13.63;;;1.40;99.90;;;;;;5116562;27;20062;-70
2021/11/10 07:43:55;;;;;;;41.07;15.17;;;1.50;99.90;;;;;;5118797;27;20043;-70
2021/11/10 07:46:24;;;;;;;44.60;14.27;;;1.40;99.90;;;;;;5117621;27;20491;-71
2021/11/10 07:48:53;;;;;;;44.80;14.17;;;1.50;99.90;;;;;;5119028;27;20051;-70
2021/11/10 07:51:21;;;;;;;32.80;13.97;;;1.60;99.90;;;;;;5116196;27;20075;-72
2021/11/10 07:53:49;;;;;;;62.60;15.20;;;1.60;99.90;;;;;;5117339;27;20077;-71
2021/11/10 07:56:16;;;;;;;37.97;13.93;;;1.40;99.90;;;;;;5116118;27;20055;-69
2021/11/10 07:58:44;;;;;;;37.40;14.27;;;1.60;99.90;;;;;;5118695;27;20082;-69
2021/11/10 08:01:12;;;;;;;45.07;15.60;;;1.70;99.90;;;;;;5118612;27;20571;-69
2021/11/10 08:03:39;;;;;;;47.03;15.50;;;1.80;99.90;;;;;;5117142;27;20079;-69
2021/11/10 08:06:08;;;;;;;41.27;14.77;;;1.80;99.90;;;;;;5116926;27;20086;-69
2021/11/10 08:08:36;;;;;;;48.40;15.03;;;1.70;99.90;;;;;;5117495;27;20112;-69
2021/11/10 08:11:04;;;;;;;44.17;14.30;;;1.70;99.90;;;;;;5117161;27;20054;-69
2021/11/10 08:13:31;;;;;;;27.83;12.57;;;1.70;99.90;;;;;;5111318;27;20167;-68
2021/11/10 08:15:59;;;;;;;42.70;14.50;;;2.00;99.90;;;;;;5108439;27;20160;-69
2021/11/10 08:18:28;;;;;;;34.70;15.00;;;2.00;99.90;;;;;;5117956;27;20082;-72
2021/11/10 08:20:56;;;;;;;68.03;18.57;;;1.90;99.90;;;;;;5118712;27;20055;-70
2021/11/10 08:23:26;;;;;;;29.67;13.33;;;2.00;99.90;;;;;;5109785;27;20051;-70
2021/11/10 08:25:54;;;;;;;35.27;15.33;;;2.00;99.90;;;;;;5111555;27;20051;-69
2021/11/10 08:28:21;;;;;;;30.10;14.83;;;2.10;99.90;;;;;;5113686;27;20456;-69
2021/11/10 08:30:49;;;;;;;38.33;15.47;;;2.20;99.90;;;;;;5113495;27;20074;-70
2021/11/10 08:33:16;;;;;;;35.40;15.57;;;2.20;99.90;;;;;;5113162;27;20051;-70
2021/11/10 08:35:44;;;;;;;39.57;15.53;;;2.20;99.90;;;;;;5112203;27;20499;-70
2021/11/10 08:38:11;;;;;;;37.70;15.80;;;2.30;99.90;;;;;;5113023;27;20055;-69
2021/11/10 08:40:39;;;;;;;30.43;14.63;;;2.40;99.90;;;;;;5113201;27;20047;-70
2021/11/10 08:43:10;;;;;;;55.27;15.70;;;2.40;99.90;;;;;;5113836;27;20100;-70
2021/11/10 08:45:39;;;;;;;41.97;15.23;;;2.40;99.90;;;;;;5112591;27;20049;-70
2021/11/10 08:48:07;;;;;;;35.83;14.47;;;2.50;99.90;;;;;;5112401;27;20744;-70
2021/11/10 08:50:39;;;;;;;34.87;14.73;;;2.80;99.90;;;;;;5111822;27;20051;-70
2021/11/10 08:53:07;;;;;;;35.47;15.50;;;3.00;99.90;;;;;;5112370;27;20059;-71
2021/11/10 08:55:34;;;;;;;30.17;14.63;;;3.30;99.90;;;;;;5111871;27;20103;-73
2021/11/10 08:58:03;;;;;;;56.57;15.47;;;3.40;99.90;;;;;;5115778;27;20054;-68
2021/11/10 09:00:32;;;;;;;27.17;13.43;;;3.70;99.90;;;;;;5111601;27;20124;-71
2021/11/10 09:02:59;;;;;;;27.90;12.90;;;4.10;99.90;;;;;;5110827;27;20055;-69
2021/11/10 09:05:27;;;;;;;27.93;12.17;;;4.60;99.90;;;;;;5109233;27;20043;-69
2021/11/10 09:07:54;;;;;;;23.58;13.05;;;4.70;99.90;;;;;;5108974;27;20104;-69
2021/11/10 09:10:23;;;;;;;22.20;12.32;;;5.40;99.90;;;;;;5107244;27;20051;-69
2021/11/10 09:12:51;;;;;;;34.65;13.18;;;5.20;99.90;;;;;;5107477;27;20508;-69
2021/11/10 09:15:22;;;;;;;21.63;11.45;;;6.50;99.90;;;;;;5106677;27;20059;-70
2021/11/10 09:17:49;;;;;;;35.85;12.23;;;8.10;99.90;;;;;;5108473;27;20047;-71
2021/11/10 09:20:19;;;;;;;18.77;11.05;;;9.90;99.90;;;;;;5113342;27;20079;-70
2021/11/10 09:22:46;;;;;;;17.45;11.15;;;10.90;99.90;;;;;;5112281;27;20100;-70
2021/11/10 09:25:17;;;;;;;20.33;10.55;;;11.40;99.90;;;;;;5111558;27;20047;-70
2021/11/10 09:27:45;;;;;;;17.27;10.60;;;12.20;99.90;;;;;;5111980;27;20818;-68
2021/11/10 09:30:15;;;;;;;19.60;11.15;;;12.80;99.90;;;;;;5112813;27;20072;-68
2021/11/10 09:32:44;;;;;;;16.40;10.23;;;13.10;99.90;;;;;;5112877;27;20165;-68
2021/11/10 09:35:14;;;;;;;18.48;11.20;;;13.00;99.90;;;;;;5104343;27;20463;-68
2021/11/10 09:37:41;;;;;;;16.50;10.18;;;14.20;99.90;;;;;;5109126;27;20136;-68
2021/11/10 09:40:11;;;;;;;21.48;10.35;;;14.70;99.90;;;;;;5105099;27;20494;-68
2021/11/10 09:42:38;;;;;;;19.80;11.55;;;15.40;99.90;;;;;;5105359;27;20047;-68
2021/11/10 09:45:08;;;;;;;18.90;11.35;;;15.60;99.90;;;;;;5105530;27;20491;-68
2021/11/10 09:47:38;;;;;;;20.60;10.77;;;16.30;99.90;;;;;;5106507;27;20139;-68
2021/11/10 09:50:09;;;;;;;18.08;10.18;;;16.50;99.90;;;;;;5106372;27;20050;-68
2021/11/10 09:52:36;;;;;;;16.55;10.18;;;16.40;99.90;;;;;;5100261;27;20055;-68
2021/11/10 09:55:04;;;;;;;22.05;10.90;;;16.70;99.90;;;;;;5108992;27;20039;-68
2021/11/10 09:57:33;;;;;;;15.10;10.75;;;17.20;99.90;;;;;;5108773;27;20543;-69
2021/11/10 10:00:00;;;;;;;19.42;10.77;;;16.80;99.90;;;;;;5109277;27;20043;-69
2021/11/10 10:02:27;;;;;;;17.35;11.10;;;16.80;99.90;;;;;;5108812;27;20139;-68
2021/11/10 10:04:55;;;;;;;22.80;12.32;;;17.00;99.90;;;;;;5107828;27;20094;-68
2021/11/10 10:07:25;;;;;;;16.27;11.75;;;16.70;99.90;;;;;;5114262;27;20047;-69
2021/11/10 10:09:52;;;;;;;19.05;12.07;;;17.10;99.90;;;;;;5110020;27;20055;-68
2021/11/10 10:12:19;;;;;;;16.80;11.38;;;16.00;99.60;;;;;;5101208;27;20626;-69
2021/11/10 10:14:47;;;;;;;20.25;12.60;;;16.90;99.10;;;;;;5109724;27;20500;-68
2021/11/10 10:17:33;;;;;;;21.63;12.23;;;17.70;99.20;;;;;;5110258;27;20507;-68
2021/11/10 10:20:00;;;;;;;15.98;11.15;;;18.30;99.10;;;;;;5102147;27;20079;-69
2021/11/10 10:22:29;;;;;;;18.17;11.68;;;17.60;97.90;;;;;;5107956;27;20091;-68
2021/11/10 10:24:59;;;;;;;19.05;11.93;;;16.80;98.00;;;;;;5111156;27;20043;-68
2021/11/10 10:27:30;;;;;;;16.88;10.90;;;16.30;98.50;;;;;;5109355;27;20078;-69
2021/11/10 10:30:25;;;;;;;19.73;11.07;;;17.80;99.40;;;;;;5106664;27;20807;-68
2021/11/10 10:32:55;;;;;;;16.30;10.27;;;18.10;96.50;;;;;;5106056;27;20043;-68
2021/11/10 10:35:31;;;;;;;16.98;10.60;;;20.20;96.50;;;;;;5106024;27;20210;-68
2021/11/10 10:38:01;;;;;;;17.00;8.88;;;20.80;95.30;;;;;;5109008;27;20104;-68
2021/11/10 10:40:29;;;;;;;16.90;10.15;;;19.50;95.10;;;;;;5108244;27;20055;-68
2021/11/10 10:42:57;;;;;;;20.20;9.20;;;20.50;94.70;;;;;;5107967;27;20088;-68
2021/11/10 10:45:30;;;;;;;14.30;8.63;;;19.70;95.70;;;;;;5110658;27;20138;-68
2021/11/10 10:48:01;;;;;;;13.00;7.65;;;19.60;96.00;;;;;;5116387;27;20317;-68
2021/11/10 10:50:34;;;;;;;11.73;7.40;;;18.00;94.10;;;;;;5113908;27;20138;-68
2021/11/10 10:53:03;;;;;;;13.95;8.43;;;17.80;95.30;;;;;;5112869;27;21002;-68
2021/11/10 10:55:38;;;;;;;13.00;8.10;;;16.20;97.10;;;;;;5111684;27;20107;-68
2021/11/10 10:58:09;;;;;;;12.15;7.45;;;17.00;97.10;;;;;;5112491;27;20123;-68
2021/11/10 11:00:37;;;;;;;13.02;7.95;;;17.40;96.40;;;;;;5112360;27;20519;-68
2021/11/10 11:03:26;;;;;;;12.75;7.70;;;17.90;96.50;;;;;;5112467;27;20535;-68
2021/11/10 11:05:54;;;;;;;12.68;8.13;;;16.10;96.60;;;;;;5099931;27;20100;-68
2021/11/10 11:08:38;;;;;;;13.70;7.32;;;18.50;96.00;;;;;;5109195;27;20055;-68
2021/11/10 11:11:21;;;;;;;14.30;8.15;;;18.70;95.00;;;;;;5101716;27;20062;-68
2021/11/10 11:13:50;;;;;;;16.50;8.82;;;20.30;94.60;;;;;;5104303;27;20108;-68
2021/11/10 11:16:20;;;;;;;13.25;7.43;;;19.70;94.30;;;;;;5108522;27;20047;-68
2021/11/10 11:18:47;;;;;;;12.88;8.05;;;20.70;93.50;;;;;;5100180;27;20092;-68
2021/11/10 11:21:46;;;;;;;13.30;8.18;;;18.30;94.30;;;;;;5104673;27;20054;-71
2021/11/10 11:24:28;;;;;;;13.18;8.10;;;15.90;98.20;;;;;;5109767;27;20047;-70
2021/11/10 11:26:55;;;;;;;13.23;7.65;;;16.50;97.60;;;;;;5109011;27;20582;-71
2021/11/10 11:29:24;;;;;;;13.82;7.80;;;18.40;97.60;;;;;;5110659;28;20127;-70
2021/11/10 11:31:52;;;;;;;14.15;8.80;;;17.00;97.10;;;;;;5109651;28;20047;-70
2021/11/10 11:34:20;;;;;;;16.15;8.60;;;16.10;96.80;;;;;;5108011;28;20047;-71
2021/11/10 11:36:50;;;;;;;14.90;8.68;;;18.40;96.10;;;;;;5108260;28;20140;-70
2021/11/10 11:39:18;;;;;;;14.75;8.05;;;18.50;96.10;;;;;;5109159;28;20059;-70
2021/11/10 11:41:47;;;;;;;12.43;8.18;;;20.30;95.50;;;;;;5109716;28;20074;-72
2021/11/10 11:44:14;;;;;;;11.73;8.00;;;21.00;94.50;;;;;;5109906;27;20083;-71
2021/11/10 11:46:42;;;;;;;11.98;8.52;;;21.10;95.00;;;;;;5108360;28;20096;-70
2021/11/10 11:49:09;;;;;;;13.13;8.68;;;18.70;95.40;;;;;;5110237;28;20104;-70
2021/11/10 11:51:37;;;;;;;16.23;9.00;;;15.00;97.10;;;;;;5109217;28;20055;-71
2021/11/10 11:54:06;;;;;;;14.05;8.40;;;14.70;99.70;;;;;;5109413;27;20124;-72
2021/11/10 11:56:34;;;;;;;14.70;8.52;;;15.00;99.90;;;;;;5108475;28;20082;-70
2021/11/10 11:59:04;;;;;;;16.17;9.40;;;14.90;99.90;;;;;;5109521;28;20086;-70
2021/11/10 12:01:32;;;;;;;18.05;9.15;;;14.10;99.90;;;;;;5108359;27;20065;-70
2021/11/10 12:04:04;;;;;;;14.65;8.57;;;15.20;99.90;;;;;;5109882;28;20051;-70
2021/11/10 12:06:33;;;;;;;14.95;8.85;;;17.10;98.70;;;;;;5108083;28;20054;-70
2021/11/10 12:09:01;;;;;;;14.40;9.10;;;16.10;99.00;;;;;;5108926;28;20047;-70
2021/11/10 12:11:31;;;;;;;13.23;8.65;;;15.80;98.70;;;;;;5109009;28;20043;-70
2021/11/10 12:14:17;;;;;;;15.02;9.13;;;14.30;99.80;;;;;;5109022;27;20082;-72
2021/11/10 12:16:51;;;;;;;16.80;9.52;;;13.10;99.90;;;;;;5108908;28;20043;-70
2021/11/10 12:19:24;;;;;;;16.38;9.75;;;12.10;99.90;;;;;;5108482;28;20051;-70
2021/11/10 12:21:53;;;;;;;13.98;9.23;;;11.80;99.90;;;;;;5107951;28;20051;-70
2021/11/10 12:24:29;;;;;;;19.35;9.95;;;11.30;99.90;;;;;;5109151;27;20078;-71
2021/11/10 12:27:13;;;;;;;17.15;9.73;;;11.30;99.90;;;;;;5112308;27;20126;-70
2021/11/10 12:30:04;;;;;;;16.15;9.15;;;11.30;99.90;;;;;;5112738;27;20483;-70
2021/11/10 12:32:51;;;;;;;19.95;9.80;;;11.50;99.90;;;;;;5103333;27;20058;-70
2021/11/10 12:35:33;;;;;;;17.73;10.75;;;11.40;99.90;;;;;;5111179;27;20421;-70
2021/11/10 12:38:01;;;;;;;17.17;10.07;;;10.60;99.90;;;;;;5116850;27;20051;-70
2021/11/10 12:40:30;;;;;;;17.25;10.63;;;10.20;99.90;;;;;;5116432;27;20441;-70
2021/11/10 12:43:12;;;;;;;19.08;10.23;;;10.30;99.90;;;;;;5115841;27;20079;-70